Terminal Aerodrome Forecast
Issued by NWS

Home | Current Version | Previous Version | Text Only | Print | Product List | Glossary On
Versions: 1 2 3 4 5 6 7 8 9 10 11 12 13
615
FTUS45 KABQ 201141
TAFGUP
TAF
KGUP 201141Z 2012/2112 20010KT P6SM FEW100
     FM201900 20013G19KT P6SM SCT110
     FM210200 16005KT P6SM BKN250=

USA.gov is the U.S. government's official web portal to all federal, state and local government web resources and services.